Time;durP1;ratioP1;P1;durP2;ratioP2;P2;SDS_P1;SDS_P2;PMS_P1;PMS_P2;Temp;Humidity;BMP_temperature;BMP_pressure;BME280_temperature;BME280_humidity;BME280_pressure;Samples;Min_cycle;Max_cycle;Signal;HPM_P1;HPM_P2
2022/11/12 00:02:21;;;;;;;42.70;22.60;;;;;;;6.32;100.00;102033.70;3655083;79;25969;-94
2022/11/12 00:07:22;;;;;;;42.93;24.07;;;;;;;6.31;100.00;102031.28;3661750;79;98396;-94
2022/11/12 00:12:23;;;;;;;38.17;21.90;;;;;;;6.28;100.00;102035.44;3671559;79;32917;-94
2022/11/12 00:17:24;;;;;;;39.27;24.03;;;;;;;6.26;100.00;102036.86;3660996;79;98512;-93
2022/11/12 00:22:24;;;;;;;37.67;21.97;;;;;;;6.22;100.00;102045.45;3666266;79;32986;-94
2022/11/12 00:27:25;;;;;;;37.73;22.97;;;;;;;6.17;100.00;102043.63;3658268;80;98692;-92
2022/11/12 00:32:26;;;;;;;40.50;23.80;;;;;;;6.14;100.00;102048.91;3654182;79;31606;-92
2022/11/12 00:37:27;;;;;;;37.23;22.43;;;;;;;6.09;100.00;102040.81;3654483;79;98504;-92
2022/11/12 00:42:28;;;;;;;35.73;21.90;;;;;;;6.05;100.00;102052.92;3666422;79;31659;-92
2022/11/12 00:47:29;;;;;;;35.10;21.07;;;;;;;6.00;100.00;102049.52;3654693;79;98488;-93
2022/11/12 00:52:30;;;;;;;34.13;18.27;;;;;;;5.96;100.00;102056.70;3658924;79;32119;-92
2022/11/12 00:57:30;;;;;;;28.30;16.20;;;;;;;5.91;100.00;102058.17;3689017;79;98747;-93
2022/11/12 01:02:31;;;;;;;31.13;17.07;;;;;;;5.84;100.00;102057.79;3715844;79;32914;-93
2022/11/12 01:07:32;;;;;;;26.65;15.65;;;;;;;5.78;100.00;102050.78;3719270;78;98569;-92
2022/11/12 01:12:33;;;;;;;25.90;13.80;;;;;;;5.72;100.00;102049.28;3730581;78;26111;-93
2022/11/12 01:17:34;;;;;;;23.77;12.63;;;;;;;5.66;100.00;102050.47;3709444;78;98521;-93
2022/11/12 01:22:35;;;;;;;20.90;11.97;;;;;;;5.61;100.00;102056.03;3621570;81;35411;-92
2022/11/12 01:27:35;;;;;;;20.97;9.83;;;;;;;5.56;100.00;102056.17;3605865;81;98755;-91
2022/11/12 01:32:36;;;;;;;18.97;9.27;;;;;;;5.51;100.00;102054.91;3609624;80;34982;-92
2022/11/12 01:37:37;;;;;;;16.70;8.90;;;;;;;5.45;100.00;102050.66;3562291;81;98260;-92
2022/11/12 01:42:38;;;;;;;15.77;7.97;;;;;;;5.41;100.00;102058.62;3561254;82;35420;-93
2022/11/12 01:47:39;;;;;;;18.03;9.03;;;;;;;5.36;100.00;102060.66;3555480;82;98358;-92
2022/11/12 01:52:51;;;;;;;15.50;8.13;;;;;;;5.30;100.00;102048.22;3596149;81;35481;-93
2022/11/12 01:58:06;;;;;;;16.00;7.45;;;;;;;5.26;100.00;102053.48;3587550;80;98329;-93
2022/11/12 02:03:15;;;;;;;20.60;9.27;;;;;;;5.21;100.00;102053.57;3571980;80;32010;-94
2022/11/12 02:08:16;;;;;;;20.57;8.53;;;;;;;5.15;100.00;102051.23;3502889;83;98224;-94
2022/11/12 02:18:38;;;;;;;16.32;7.62;;;;;;;5.05;100.00;102060.96;3449396;84;35502;-93
2022/11/12 02:23:38;;;;;;;16.80;7.60;;;;;;;4.97;100.00;102054.84;3503798;82;98571;-93
2022/11/12 02:28:39;;;;;;;15.53;7.83;;;;;;;4.93;100.00;102057.37;3513720;82;32564;-93
2022/11/12 02:33:40;;;;;;;14.20;7.33;;;;;;;4.91;100.00;102065.59;3499324;82;98569;-93
2022/11/12 02:38:41;;;;;;;13.40;6.63;;;;;;;4.85;100.00;102063.50;3509066;83;32436;-93
2022/11/12 02:43:42;;;;;;;15.60;7.10;;;;;;;4.81;100.00;102068.50;3450242;83;99090;-93
2022/11/12 02:48:44;;;;;;;14.13;7.58;;;;;;;4.78;100.00;102079.45;3507646;83;32584;-93
2022/11/12 02:53:45;;;;;;;13.13;6.27;;;;;;;4.79;100.00;102074.78;3509037;82;98564;-94
2022/11/12 02:58:46;;;;;;;15.50;7.23;;;;;;;4.80;100.00;102076.43;3551415;82;32473;-94
2022/11/12 03:03:47;;;;;;;16.00;7.47;;;;;;;4.80;100.00;102075.86;3537231;82;98721;-94
2022/11/12 03:08:47;;;;;;;12.85;6.87;;;;;;;4.82;100.00;102081.02;3537375;83;30623;-94
2022/11/12 03:13:48;;;;;;;15.72;7.53;;;;;;;4.86;100.00;102082.05;3531007;83;98467;-93
2022/11/12 03:18:49;;;;;;;16.83;7.67;;;;;;;4.91;100.00;102095.03;3537018;82;26486;-94
2022/11/12 03:23:50;;;;;;;14.07;6.87;;;;;;;4.96;100.00;102087.34;3540239;81;98781;-94
2022/11/12 03:28:51;;;;;;;15.73;8.20;;;;;;;5.02;100.00;102095.69;3484077;83;25993;-94
2022/11/12 03:33:51;;;;;;;14.67;7.73;;;;;;;5.09;100.00;102092.01;3476995;83;98727;-94
2022/11/12 03:38:52;;;;;;;16.77;7.57;;;;;;;5.20;100.00;102098.90;3525355;83;26481;-94
2022/11/12 03:43:53;;;;;;;12.70;6.75;;;;;;;5.26;100.00;102100.42;3539984;81;98553;-93
2022/11/12 03:48:54;;;;;;;17.43;8.50;;;;;;;5.36;100.00;102100.24;3543869;82;33345;-94
2022/11/12 03:53:54;;;;;;;14.93;7.43;;;;;;;5.46;100.00;102099.48;3517309;83;98822;-94
2022/11/12 03:58:55;;;;;;;13.47;6.63;;;;;;;5.56;100.00;102111.58;3546665;82;32908;-92
2022/11/12 04:03:56;;;;;;;16.30;7.78;;;;;;;5.68;100.00;102104.27;3562689;80;98747;-91
2022/11/12 04:08:57;;;;;;;16.40;8.03;;;;;;;5.78;100.00;102107.58;3606575;81;32995;-91
2022/11/12 04:13:59;;;;;;;16.25;7.30;;;;;;;5.90;100.00;102096.97;3600678;80;98552;-92
2022/11/12 04:34:51;;;;;;;17.07;7.50;;;;;;;6.28;100.00;102103.80;3601686;80;98744;-92
2022/11/12 04:39:53;;;;;;;15.55;7.00;;;;;;;6.37;100.00;102103.88;3541880;83;26286;-93
2022/11/12 04:45:01;;;;;;;14.43;7.33;;;;;;;6.45;100.00;102101.23;3528992;82;98852;-93
2022/11/12 04:50:07;;;;;;;14.03;6.90;;;;;;;6.53;100.00;102106.50;3546266;82;26353;-92
2022/11/12 04:55:09;;;;;;;17.42;7.85;;;;;;;6.60;100.00;102108.28;3594478;81;98615;-93
2022/11/12 05:00:12;;;;;;;13.75;6.50;;;;;;;6.68;100.00;102111.08;3599158;81;25939;-94
2022/11/12 05:05:12;;;;;;;14.10;6.70;;;;;;;6.73;100.00;102109.59;3597789;81;98592;-94
2022/11/12 05:10:14;;;;;;;13.40;7.03;;;;;;;6.78;100.00;102112.20;3604304;81;32817;-94
2022/11/12 05:15:15;;;;;;;13.80;7.33;;;;;;;6.84;100.00;102110.95;3596241;81;98537;-94
2022/11/12 05:20:16;;;;;;;15.10;7.57;;;;;;;6.91;100.00;102114.61;3607153;81;32911;-94
2022/11/12 05:25:17;;;;;;;16.67;8.40;;;;;;;6.95;100.00;102118.34;3601048;80;98681;-93
2022/11/12 05:30:18;;;;;;;13.10;6.67;;;;;;;7.00;100.00;102116.85;3606856;81;32943;-92
2022/11/12 05:35:19;;;;;;;11.87;6.03;;;;;;;7.04;100.00;102118.64;3597906;81;98486;-92
2022/11/12 05:40:20;;;;;;;13.47;6.93;;;;;;;7.07;100.00;102124.87;3600553;81;32925;-92
2022/11/12 05:45:20;;;;;;;13.83;6.57;;;;;;;7.12;100.00;102126.67;3597732;80;98938;-93
2022/11/12 05:50:21;;;;;;;13.57;7.23;;;;;;;7.13;100.00;102129.65;3592278;82;32910;-92
2022/11/12 05:55:22;;;;;;;13.93;7.70;;;;;;;7.16;100.00;102130.41;3588458;81;99017;-92
2022/11/12 06:00:23;;;;;;;17.10;8.40;;;;;;;7.22;100.00;102125.05;3586164;82;32168;-91
2022/11/12 06:05:23;;;;;;;13.97;7.83;;;;;;;7.25;100.00;102132.65;3515491;82;98540;-92
2022/11/12 06:10:25;;;;;;;14.47;7.60;;;;;;;7.27;100.00;102133.95;3480030;83;31593;-93
2022/11/12 06:15:26;;;;;;;14.83;7.03;;;;;;;7.29;100.00;102130.33;3474635;84;98634;-92
2022/11/12 06:20:27;;;;;;;13.43;7.13;;;;;;;7.31;100.00;102134.92;3480483;83;31686;-93
2022/11/12 06:25:28;;;;;;;16.23;8.03;;;;;;;7.34;100.00;102139.78;3489376;83;98893;-92
2022/11/12 06:30:29;;;;;;;13.80;7.27;;;;;;;7.37;100.00;102143.25;3491254;83;31692;-92
2022/11/12 06:35:30;;;;;;;13.50;7.13;;;;;;;7.40;100.00;102145.37;3479790;83;98750;-92
2022/11/12 06:40:30;;;;;;;15.63;7.17;;;;;;;7.44;100.00;102139.52;3518378;83;31652;-92
2022/11/12 06:45:31;;;;;;;17.00;7.63;;;;;;;7.48;100.00;102140.48;3501929;83;98844;-92
2022/11/12 06:50:32;;;;;;;16.37;6.97;;;;;;;7.54;100.00;102150.21;3536584;83;31614;-93
2022/11/12 06:55:33;;;;;;;14.90;7.33;;;;;;;7.58;100.00;102155.28;3536610;82;98509;-93
2022/11/12 07:00:34;;;;;;;14.57;7.13;;;;;;;7.63;100.00;102156.52;3522982;83;26359;-92
2022/11/12 07:05:37;;;;;;;19.77;10.10;;;;;;;7.67;100.00;102157.52;3564902;80;98500;-92
2022/11/12 07:10:38;;;;;;;17.48;8.45;;;;;;;7.73;100.00;102156.80;3657708;80;31633;-93
2022/11/12 07:15:39;;;;;;;13.27;7.37;;;;;;;7.78;100.00;102161.59;3651183;80;98613;-91
2022/11/12 07:20:39;;;;;;;12.40;6.93;;;;;;;7.86;100.00;102162.76;3659178;80;35527;-93
2022/11/12 07:25:40;;;;;;;13.72;6.95;;;;;;;7.93;100.00;102158.98;3653044;80;98599;-93
2022/11/12 07:30:41;;;;;;;12.40;6.60;;;;;;;8.00;100.00;102168.37;3655595;80;34921;-92
2022/11/12 07:35:42;;;;;;;18.67;7.60;;;;;;;8.07;100.00;102152.25;3646025;79;98444;-93
2022/11/12 07:40:43;;;;;;;20.73;8.53;;;;;;;8.16;100.00;102165.44;3653382;80;34795;-92
2022/11/12 07:45:43;;;;;;;17.70;9.45;;;;;;;8.24;100.00;102165.25;3651423;79;98958;-94
2022/11/12 07:50:44;;;;;;;15.63;8.57;;;;;;;8.31;100.00;102166.40;3654458;79;26185;-93
2022/11/12 07:55:57;;;;;;;19.27;9.27;;;;;;;8.40;100.00;102169.16;3645316;80;98865;-93
2022/11/12 08:01:09;;;;;;;18.12;9.03;;;;;;;8.47;100.00;102170.30;3654767;80;34947;-93
2022/11/12 08:06:09;;;;;;;16.77;8.50;;;;;;;8.55;100.00;102174.16;3589033;80;98745;-93
2022/11/12 08:11:10;;;;;;;16.63;9.03;;;;;;;8.64;100.00;102179.92;3723986;79;26159;-93
2022/11/12 08:16:11;;;;;;;18.93;9.50;;;;;;;8.70;100.00;102174.52;3726369;79;98877;-91
2022/11/12 08:21:15;;;;;;;21.57;9.57;;;;;;;8.80;100.00;102178.87;3668629;79;33840;-91
2022/11/12 08:26:18;;;;;;;21.12;9.60;;;;;;;8.88;100.00;102172.59;3655564;80;98485;-91
2022/11/12 08:31:22;;;;;;;16.85;8.73;;;;;;;8.95;100.00;102179.19;3596322;82;34898;-91
2022/11/12 08:36:22;;;;;;;18.20;9.90;;;;;;;9.04;100.00;102177.25;3655688;79;98870;-93
2022/11/12 08:41:23;;;;;;;17.43;8.87;;;;;;;9.13;100.00;102182.74;3587381;81;26498;-93
2022/11/12 08:46:24;;;;;;;17.47;10.00;;;;;;;9.20;100.00;102191.29;3592406;81;98977;-91
2022/11/12 08:51:27;;;;;;;20.87;9.50;;;;;;;9.26;100.00;102190.02;3603683;80;25769;-92
2022/11/12 08:56:27;;;;;;;22.43;9.67;;;;;;;9.31;100.00;102191.19;3599624;80;98714;-92
2022/11/12 09:01:28;;;;;;;20.53;11.07;;;;;;;9.39;100.00;102202.17;3595709;80;26594;-93
2022/11/12 09:06:29;;;;;;;18.43;10.30;;;;;;;9.47;100.00;102209.61;3553404;81;99245;-93
2022/11/12 09:11:30;;;;;;;19.33;10.47;;;;;;;9.54;100.00;102205.78;3594795;80;32501;-92
2022/11/12 09:16:31;;;;;;;19.93;11.60;;;;;;;9.64;100.00;102200.50;3554273;82;98703;-92
2022/11/12 09:21:31;;;;;;;18.83;11.27;;;;;;;9.74;100.00;102207.02;3558296;81;32583;-91
2022/11/12 09:26:32;;;;;;;21.43;12.07;;;;;;;9.81;100.00;102212.84;3588365;81;99085;-91
2022/11/12 09:31:33;;;;;;;21.62;11.68;;;;;;;9.81;100.00;102215.01;3613490;81;32954;-91
2022/11/12 09:36:34;;;;;;;21.10;12.25;;;;;;;9.96;100.00;102206.78;3605235;80;98976;-88
2022/11/12 09:41:39;;;;;;;24.27;12.00;;;;;;;10.10;100.00;102207.41;3599247;80;26537;-89
2022/11/12 09:47:02;;;;;;;22.93;13.55;;;;;;;10.19;100.00;102219.19;3603855;81;99355;-87
2022/11/12 09:52:07;;;;;;;25.30;13.85;;;;;;;10.34;100.00;102217.23;3616702;81;32500;-89
2022/11/12 09:57:11;;;;;;;24.30;13.53;;;;;;;10.47;100.00;102225.84;3606975;80;98948;-88
2022/11/12 10:02:30;;;;;;;30.95;17.02;;;;;;;10.55;100.00;102231.30;3610761;80;32412;-89
2022/11/12 10:07:42;;;;;;;27.70;16.10;;;;;;;10.82;100.00;102226.66;3607853;81;99311;-89
2022/11/12 10:13:27;;;;;;;21.87;12.88;;;;;;;10.82;100.00;102226.66;3616512;81;32529;-88
2022/11/12 10:19:05;;;;;;;27.80;14.13;;;;;;;10.95;100.00;102226.17;3649696;80;32527;-88
2022/11/12 10:24:10;;;;;;;22.93;14.23;;;;;;;11.10;100.00;102226.91;3641002;80;99139;-89
2022/11/12 10:29:33;;;;;;;27.05;15.20;;;;;;;11.17;100.00;102233.50;3530351;82;32212;-88
2022/11/12 10:34:34;;;;;;;25.92;15.00;;;;;;;11.25;100.00;102231.26;3527178;82;99472;-88
2022/11/12 10:39:43;;;;;;;25.45;14.87;;;;;;;11.29;100.00;102218.98;3617287;81;30875;-87
2022/11/12 10:44:44;;;;;;;25.88;14.87;;;;;;;11.33;100.00;102230.36;3609869;80;99458;-84
2022/11/12 10:50:15;;;;;;;28.73;15.35;;;;;;;11.41;100.00;102219.02;3613980;80;32977;-87
2022/11/12 10:55:21;;;;;;;25.95;14.43;;;;;;;11.40;100.00;102216.82;3606773;80;99400;-86
2022/11/12 11:00:23;;;;;;;28.05;15.70;;;;;;;11.38;100.00;102206.72;3618202;81;27354;-90
2022/11/12 11:05:38;;;;;;;24.90;15.30;;;;;;;11.37;100.00;102213.38;3608942;81;99071;-89
2022/11/12 11:10:39;;;;;;;27.42;15.30;;;;;;;11.39;100.00;102201.43;3612283;80;32520;-90
2022/11/12 11:15:39;;;;;;;29.20;15.03;;;;;;;11.41;100.00;102210.19;3643727;80;99107;-89
2022/11/12 11:20:48;;;;;;;25.47;15.07;;;;;;;11.47;100.00;102212.97;3594600;81;26246;-90
2022/11/12 11:25:52;;;;;;;27.52;15.35;;;;;;;11.49;100.00;102218.11;3640956;79;99170;-90
2022/11/12 11:31:14;;;;;;;26.15;15.55;;;;;;;11.52;100.00;102214.13;3584772;81;32440;-87
2022/11/12 11:36:29;;;;;;;26.05;15.15;;;;;;;11.60;100.00;102213.81;3585878;81;99441;-90
2022/11/12 11:41:59;;;;;;;24.55;14.43;;;;;;;11.62;100.00;102209.57;3579410;81;32421;-90
2022/11/12 11:47:20;;;;;;;28.85;14.18;;;;;;;11.74;100.00;102214.33;3549937;82;98730;-89
2022/11/12 11:52:39;;;;;;;31.85;15.55;;;;;;;11.74;100.00;102214.33;3582627;81;32638;-89
2022/11/12 11:58:12;;;;;;;28.77;15.05;;;;;;;11.76;100.00;102210.63;3497049;82;99471;-88
2022/11/12 12:03:19;;;;;;;24.82;13.60;;;;;;;11.75;100.00;102215.92;3592786;81;33526;-87
2022/11/12 12:08:50;;;;;;;26.67;15.00;;;;;;;11.77;100.00;102211.69;3473539;83;99318;-89
2022/11/12 12:14:06;;;;;;;26.33;15.53;;;;;;;11.79;99.97;102195.61;3477791;83;99052;-88
2022/11/12 12:19:39;;;;;;;27.52;15.60;;;;;;;11.86;100.00;102213.78;3489734;84;32925;-88
2022/11/12 12:24:54;;;;;;;28.32;14.47;;;;;;;11.89;99.82;102209.53;3482448;81;99428;-88
2022/11/12 12:30:21;;;;;;;27.87;15.28;;;;;;;11.92;99.75;102215.16;3561164;81;32487;-88
2022/11/12 12:35:45;;;;;;;25.60;14.60;;;;;;;11.91;99.60;102214.13;3558974;81;99265;-89
2022/11/12 12:41:12;;;;;;;22.17;13.38;;;;;;;11.95;99.54;102218.60;3504436;83;32563;-89
2022/11/12 12:46:14;;;;;;;;;;;;;;;11.91;99.16;102214.94;3506602;83;99095;-88
2022/11/12 12:51:16;;;;;;;28.60;15.85;;;;;;;11.93;98.39;102215.98;3509480;83;32484;-88
2022/11/12 12:56:31;;;;;;;28.52;16.15;;;;;;;11.93;99.23;102208.48;3497067;83;99228;-89
2022/11/12 13:01:35;;;;;;;23.57;14.68;;;;;;;11.95;99.17;102216.44;3518125;82;32453;-89
2022/11/12 13:06:51;;;;;;;26.65;16.45;;;;;;;11.95;99.06;102208.16;3512668;82;98877;-88
2022/11/12 13:17:14;;;;;;;24.87;14.73;;;;;;;11.92;98.95;102202.75;3437031;84;99146;-88
2022/11/12 13:22:23;;;;;;;27.02;15.75;;;;;;;11.88;98.70;102204.57;3486876;84;32412;-89
2022/11/12 13:27:47;;;;;;;25.00;14.75;;;;;;;11.88;98.91;102197.67;3455688;84;98954;-89
2022/11/12 13:32:53;;;;;;;25.02;14.28;;;;;;;11.90;98.84;102195.96;3458232;83;32418;-88
2022/11/12 13:38:18;;;;;;;24.20;14.35;;;;;;;11.85;98.73;102193.42;3461779;83;99097;-89
2022/11/12 13:43:39;;;;;;;31.60;17.45;;;;;;;11.81;98.93;102190.55;3465400;84;32468;-89
2022/11/12 13:49:01;;;;;;;39.40;19.55;;;;;;;11.85;99.10;102193.42;3457435;83;32499;-89
2022/11/12 13:54:24;;;;;;;29.82;16.77;;;;;;;11.83;99.02;102193.75;3461102;85;98861;-89
2022/11/12 13:59:25;;;;;;;26.82;16.40;;;;;;;11.80;99.21;102203.30;3500286;82;32513;-89
2022/11/12 14:04:26;;;;;;;36.07;18.37;;;;;;;11.81;99.63;102193.30;3473302;84;99217;-88
2022/11/12 14:10:03;;;;;;;30.37;17.93;;;;;;;11.82;99.44;102189.39;3494117;82;25936;-89
2022/11/12 14:15:34;;;;;;;30.97;18.75;;;;;;;11.82;99.53;102189.98;3534601;82;98833;-89
2022/11/12 14:20:39;;;;;;;31.87;17.10;;;;;;;11.82;99.64;102192.15;3585174;82;33177;-89
2022/11/12 14:25:49;;;;;;;31.42;17.82;;;;;;;11.77;99.46;102186.85;3548494;81;99101;-88
2022/11/12 14:30:50;;;;;;;32.85;17.25;;;;;;;11.72;99.81;102184.31;3549464;82;32510;-89
2022/11/12 14:35:53;;;;;;;26.93;14.83;;;;;;;11.73;99.96;102184.54;3556883;81;98843;-89
2022/11/12 14:40:58;;;;;;;24.70;14.78;;;;;;;11.68;100.00;102184.79;3569412;81;32658;-88
2022/11/12 14:46:02;;;;;;;27.60;14.58;;;;;;;11.67;100.00;102184.53;3623474;80;99232;-88
2022/11/12 14:51:08;;;;;;;25.80;14.35;;;;;;;11.61;100.00;102179.00;3659446;80;33078;-88
2022/11/12 14:56:14;;;;;;;28.10;15.28;;;;;;;11.58;100.00;102184.38;3655046;79;99027;-89
2022/11/12 15:01:31;;;;;;;;;;;;;;;11.55;100.00;102181.72;3664097;80;27360;-89
2022/11/12 15:06:33;;;;;;;32.47;14.33;;;;;;;11.54;100.00;102179.30;3647785;80;84898;-89
2022/11/12 15:11:46;;;;;;;24.90;14.35;;;;;;;11.48;100.00;102184.23;3658342;79;32439;-89
2022/11/12 15:16:47;;;;;;;26.60;15.00;;;;;;;11.46;100.00;102185.13;3651598;80;99321;-89
2022/11/12 15:22:01;;;;;;;26.87;15.33;;;;;;;11.45;100.00;102185.50;3640741;80;25959;-89
2022/11/12 15:27:40;;;;;;;24.97;14.60;;;;;;;11.40;100.00;102183.73;3562868;80;98858;-90
2022/11/12 15:32:42;;;;;;;27.58;15.85;;;;;;;11.41;100.00;102181.24;3535573;83;32438;-90
2022/11/12 15:37:43;;;;;;;25.68;14.78;;;;;;;11.39;100.00;102175.23;3531029;82;98875;-91
2022/11/12 15:42:46;;;;;;;28.25;13.88;;;;;;;11.29;100.00;102185.31;3535762;82;32440;-89
2022/11/12 15:47:47;;;;;;;25.80;14.90;;;;;;;11.28;100.00;102184.30;3536843;82;98875;-91
2022/11/12 15:52:49;;;;;;;27.93;13.40;;;;;;;11.21;100.00;102178.50;3544818;82;33024;-90
2022/11/12 15:57:52;;;;;;;27.30;13.62;;;;;;;11.16;100.00;102172.64;3539922;82;98904;-90
2022/11/12 16:03:10;;;;;;;27.85;15.60;;;;;;;11.15;100.00;102175.73;3544611;82;32469;-91
2022/11/12 16:08:11;;;;;;;25.40;14.55;;;;;;;11.10;100.00;102182.27;3539376;81;98879;-90
2022/11/12 16:13:29;;;;;;;28.47;14.80;;;;;;;11.08;100.00;102189.25;3554673;82;26433;-90
2022/11/12 16:18:30;;;;;;;28.32;14.30;;;;;;;11.08;100.00;102187.32;3554416;82;33699;-90
2022/11/12 16:23:30;;;;;;;20.80;13.70;;;;;;;11.07;100.00;102189.81;3550181;82;99297;-90
2022/11/12 16:28:32;;;;;;;29.63;14.63;;;;;;;11.04;100.00;102200.16;3601176;82;25921;-91
2022/11/12 16:33:32;;;;;;;24.63;15.10;;;;;;;11.04;100.00;102200.16;3590603;81;99027;-91
2022/11/12 16:38:33;;;;;;;42.27;25.70;;;;;;;11.05;100.00;102203.14;3596972;82;26358;-91
2022/11/12 16:43:34;;;;;;;37.47;21.87;;;;;;;11.01;100.00;102205.53;3557335;81;100102;-91
2022/11/12 16:48:36;;;;;;;29.70;18.37;;;;;;;10.99;100.00;102207.80;3612218;81;26251;-91
2022/11/12 16:53:38;;;;;;;28.47;16.70;;;;;;;10.98;100.00;102208.95;3606167;80;99008;-91
2022/11/12 16:58:40;;;;;;;27.77;16.53;;;;;;;10.99;100.00;102207.80;3611904;81;26068;-91
2022/11/12 17:03:41;;;;;;;29.57;16.00;;;;;;;10.99;100.00;102206.42;3609385;81;98964;-91
2022/11/12 17:08:43;;;;;;;25.93;16.77;;;;;;;10.95;100.00;102204.91;3544429;82;25925;-91
2022/11/12 17:13:44;;;;;;;32.30;20.53;;;;;;;10.93;100.00;102217.41;3521438;82;99062;-91
2022/11/12 17:18:45;;;;;;;31.93;20.20;;;;;;;10.92;100.00;102208.92;3548099;82;25901;-91
2022/11/12 17:23:46;;;;;;;36.33;20.30;;;;;;;10.89;100.00;102203.51;3544475;81;98929;-91
2022/11/12 17:28:47;;;;;;;35.00;22.47;;;;;;;10.91;100.00;102206.72;3593517;81;26827;-91
2022/11/12 17:33:52;;;;;;;29.13;19.07;;;;;;;10.89;100.00;102213.15;3585328;81;100016;-90
2022/11/12 17:38:55;;;;;;;28.85;17.85;;;;;;;10.90;100.00;102207.87;3569255;82;33017;-92
2022/11/12 17:43:59;;;;;;;30.80;18.40;;;;;;;10.94;100.00;102215.70;3583308;81;115763;-91
2022/11/12 17:49:00;;;;;;;35.15;19.35;;;;;;;10.91;100.00;102219.13;3593842;81;31278;-91
2022/11/12 17:54:01;;;;;;;51.70;29.25;;;;;;;10.88;100.00;102206.03;3583517;81;99212;-91
2022/11/12 17:59:03;;;;;;;46.00;28.13;;;;;;;10.86;100.00;102194.52;3589560;81;26476;-91
2022/11/12 18:04:04;;;;;;;46.53;27.67;;;;;;;10.85;100.00;102193.51;3588412;81;98948;-92
2022/11/12 18:09:15;;;;;;;43.83;25.87;;;;;;;10.84;100.00;102191.31;3598535;80;26608;-92
2022/11/12 18:14:16;;;;;;;41.75;26.82;;;;;;;10.83;100.00;102188.33;3612978;80;99143;-90
2022/11/12 18:19:17;;;;;;;35.93;23.37;;;;;;;10.81;100.00;102188.42;3621474;80;26640;-92
2022/11/12 18:24:18;;;;;;;43.97;27.77;;;;;;;10.84;100.00;102186.39;3606298;80;99247;-93
2022/11/12 18:29:19;;;;;;;43.48;26.77;;;;;;;10.84;100.00;102183.05;3609613;80;30996;-91
2022/11/12 18:34:20;;;;;;;37.90;24.47;;;;;;;10.84;100.00;102182.27;3608654;80;99211;-91
2022/11/12 18:39:20;;;;;;;39.57;26.20;;;;;;;10.83;100.00;102192.46;3618010;80;26466;-91
2022/11/12 18:44:22;;;;;;;41.13;26.93;;;;;;;10.83;100.00;102188.33;3596885;80;99414;-92
2022/11/12 18:49:23;;;;;;;39.07;25.50;;;;;;;10.83;100.00;102199.34;3554856;81;26248;-92
2022/11/12 18:54:24;;;;;;;37.85;24.92;;;;;;;10.83;100.00;102210.36;3542715;81;99076;-91
2022/11/12 18:59:29;;;;;;;36.87;24.53;;;;;;;10.80;100.00;102205.52;3529302;83;25893;-91
2022/11/12 19:04:29;;;;;;;40.47;25.53;;;;;;;10.81;100.00;102216.79;3519793;82;98995;-90
2022/11/12 19:09:30;;;;;;;45.50;25.60;;;;;;;10.80;100.00;102218.50;3526444;82;25947;-92
2022/11/12 19:14:31;;;;;;;37.53;23.53;;;;;;;10.79;100.00;102221.81;3521360;82;99040;-92
2022/11/12 19:19:32;;;;;;;36.80;24.23;;;;;;;10.70;100.00;102199.05;3526084;82;26482;-91
2022/11/12 19:24:33;;;;;;;47.60;29.03;;;;;;;10.70;100.00;102199.05;3526974;82;99307;-91
2022/11/12 19:29:33;;;;;;;49.10;30.20;;;;;;;10.83;100.00;102230.20;3529692;82;26751;-92
2022/11/12 19:34:34;;;;;;;47.37;29.90;;;;;;;10.84;100.00;102239.52;3530740;81;99031;-93
2022/11/12 19:39:35;;;;;;;46.92;28.90;;;;;;;10.84;100.00;102238.14;3564860;82;25848;-93
2022/11/12 19:44:36;;;;;;;46.37;28.90;;;;;;;10.83;100.00;102234.34;3545414;82;99270;-93
2022/11/12 19:49:36;;;;;;;45.77;26.97;;;;;;;10.81;100.00;102234.69;3556149;82;33501;-92
2022/11/12 19:54:37;;;;;;;43.63;26.60;;;;;;;10.78;100.00;102224.89;3562391;81;99277;-93
2022/11/12 19:59:39;;;;;;;42.83;26.00;;;;;;;10.80;100.00;102223.41;3601930;81;32996;-92
2022/11/12 20:04:39;;;;;;;43.23;26.47;;;;;;;10.83;100.00;102221.38;3583411;81;99548;-93
2022/11/12 20:09:40;;;;;;;47.20;26.73;;;;;;;10.82;100.00;102222.53;3553771;82;32958;-94
2022/11/12 20:14:41;;;;;;;43.73;28.10;;;;;;;10.82;100.00;102222.53;3539465;82;99263;-94
2022/11/12 20:19:42;;;;;;;49.60;29.73;;;;;;;10.80;100.00;102228.13;3542569;82;32887;-92
2022/11/12 20:24:43;;;;;;;53.20;32.47;;;;;;;10.82;100.00;102225.84;3540418;81;99223;-93
2022/11/12 20:29:43;;;;;;;62.47;37.00;;;;;;;10.78;100.00;102233.16;3547414;83;31582;-94
2022/11/12 20:34:45;;;;;;;60.43;36.23;;;;;;;10.80;100.00;102230.30;3551775;82;99496;-94
2022/11/12 20:39:45;;;;;;;82.83;46.83;;;;;;;10.79;100.00;102232.03;3681185;79;31614;-93
2022/11/12 20:44:46;;;;;;;67.47;42.13;;;;;;;10.78;100.00;102235.35;3668807;79;99368;-93
2022/11/12 20:49:47;;;;;;;64.27;40.07;;;;;;;10.80;100.00;102235.02;3677851;80;31679;-94
2022/11/12 20:54:48;;;;;;;84.90;46.47;;;;;;;10.77;100.00;102236.50;3671422;79;99550;-93
2022/11/12 20:59:48;;;;;;;86.97;43.97;;;;;;;10.77;100.00;102233.74;3674806;79;31588;-93
2022/11/12 21:04:52;;;;;;;75.80;43.58;;;;;;;10.78;100.00;102235.91;3673526;79;99259;-93
2022/11/12 21:09:52;;;;;;;60.98;38.88;;;;;;;10.77;100.00;102227.41;3679601;79;32142;-94
2022/11/12 21:14:53;;;;;;;57.67;35.70;;;;;;;10.76;100.00;102231.31;3682144;79;99174;-94
2022/11/12 21:19:54;;;;;;;54.23;36.70;;;;;;;10.76;100.00;102223.05;3699852;79;26401;-93
2022/11/12 21:24:55;;;;;;;49.70;30.13;;;;;;;10.75;100.00;102221.45;3696599;79;99391;-94
2022/11/12 21:29:56;;;;;;;57.97;35.63;;;;;;;10.76;100.00;102224.43;3705833;79;34870;-93
2022/11/12 21:34:56;;;;;;;50.67;32.13;;;;;;;10.71;100.00;102217.18;3691016;79;99592;-93
2022/11/12 21:39:57;;;;;;;50.80;30.83;;;;;;;10.73;100.00;102217.64;3708375;79;35063;-93
2022/11/12 21:44:58;;;;;;;51.28;31.55;;;;;;;10.74;100.00;102204.69;3688941;79;99137;-93
2022/11/12 21:49:59;;;;;;;48.00;31.97;;;;;;;10.73;100.00;102211.31;3699181;79;34873;-93
2022/11/12 21:55:00;;;;;;;48.33;29.17;;;;;;;10.73;100.00;102203.05;3694903;79;99332;-93
2022/11/12 22:00:01;;;;;;;49.07;27.13;;;;;;;10.79;100.00;102201.74;3690266;79;28290;-94
2022/11/12 22:05:02;;;;;;;41.70;26.10;;;;;;;10.72;100.00;102214.66;3598360;81;99234;-95
2022/11/12 22:10:04;;;;;;;43.50;26.55;;;;;;;10.73;100.00;102204.43;3542827;81;28481;-94
2022/11/12 22:15:06;;;;;;;45.10;28.03;;;;;;;10.76;100.00;102213.41;3680501;79;98942;-95
2022/11/12 22:20:08;;;;;;;43.55;26.52;;;;;;;10.74;100.00;102217.08;3693516;79;34902;-95
2022/11/12 22:25:09;;;;;;;43.17;26.75;;;;;;;10.71;100.00;102212.23;3688983;79;98913;-95
2022/11/12 22:30:11;;;;;;;46.17;28.00;;;;;;;10.73;100.00;102204.43;3696199;79;28065;-94
2022/11/12 22:35:11;;;;;;;40.23;26.30;;;;;;;10.73;100.00;102209.94;3679817;79;99002;-94
2022/11/12 22:40:12;;;;;;;47.50;30.33;;;;;;;10.74;100.00;102190.92;3660710;80;26123;-95
2022/11/12 22:45:14;;;;;;;40.80;27.70;;;;;;;10.71;100.00;102200.66;3649617;79;99301;-94
2022/11/12 22:50:15;;;;;;;42.97;27.27;;;;;;;10.70;100.00;102199.61;3651548;80;26242;-95
2022/11/12 22:55:16;;;;;;;41.77;26.87;;;;;;;10.70;100.00;102183.91;3665782;80;98890;-95
2022/11/12 23:00:18;;;;;;;44.97;28.87;;;;;;;10.69;100.00;102173.22;3696507;80;25900;-94
2022/11/12 23:05:19;;;;;;;54.60;32.90;;;;;;;10.69;100.00;102174.00;3683362;79;99366;-95
2022/11/12 23:10:20;;;;;;;55.27;33.40;;;;;;;10.71;100.00;102182.76;3700079;79;26320;-94
2022/11/12 23:15:21;;;;;;;57.23;34.80;;;;;;;10.70;100.00;102185.28;3712547;78;99416;-94
2022/11/12 23:20:22;;;;;;;60.73;33.90;;;;;;;10.70;100.00;102179.77;3738264;78;32427;-95
2022/11/12 23:25:23;;;;;;;60.37;36.53;;;;;;;10.73;100.00;102173.58;3720378;79;99229;-95
2022/11/12 23:30:23;;;;;;;82.50;42.97;;;;;;;10.72;100.00;102178.03;3723032;79;33019;-94